Ayr Dpi Research Station, Queensland

9:26 AM AEST on July 24, 2016 (GMT +1000)
AYR Live Weather | | Change Station

Elev 39 ft 19.58 °S, 147.42 °E | Updated 20 seconds ago

Partly Cloudy
Partly Cloudy
69.9 °F
Feels Like 69.9 °F
N
0.0
Wind Variable Wind from North
Gusts 3.0 mph

Today
High -- | Low -- °F
--% Chance of Precip.
Yesterday
High -- | Low -- °F
Precip. -- in
Pressure 30.01 in
Visibility 6.2 miles
Clouds Few 400 ft
Dew Point 69 °F
Humidity 98%
Rainfall 0.00 in
Snow Depth Not available.
6:42 AM 5:51 PM
Waning Gibbous, 81% visible
METAR YBTL 232300Z 00000KT 9999 FEW004 22/21 Q1016 NOSIG
Pressure 30.01 in
Visibility 6.2 miles
Clouds Few 400 ft
Dew Point 69 °F
Humidity 98%
Rainfall 0.00 in
Snow Depth Not available.
6:42 AM 5:51 PM
Waning Gibbous, 81% visible
METAR YBTL 232300Z 00000KT 9999 FEW004 22/21 Q1016 NOSIG

10-Day Weather Forecast

Almanac

Astronomy

Jul. 24, 2016 Rise Set
Actual Time
Civil Twilight
Nautical Twilight
Astronomical Twilight
Moon
Length of Visible Light
Length of Day
Tomorrow will be .
, % of the Moon is Illuminated

Today's Extremes

Country Highs Country Lows

Community

WunderPhotos

Upload Photos

1,926,971 photos uploaded!

WunderBlog® & News

Nearby

Air Quality

  Air Quality AQ Index Pollutant
Not available.

Snow Depth

Station Depth Elevation

Earthquake Activity

City Distance Mag. Time & Date
Minimum magnitude displayed is 2.5.

Coastal Water Temperatures

Place Temperature

Stations

Nearby Weather Stations

Station Location Temp. Windchill Dew Point Humidity Wind Precip. Elev Updated Type